sensor_id;sensor_type;location;lat;lon;timestamp;pressure;altitude;pressure_sealevel;temperature;humidity
48644;BME280;34928;37.302;-121.984;2023-04-25T00:01:58;100789.0;;;26.84;26.65
48644;BME280;34928;37.302;-121.984;2023-04-25T00:12:03;100791.0;;;27.37;26.32
48644;BME280;34928;37.302;-121.984;2023-04-25T00:22:09;100795.0;;;27.75;25.74
48644;BME280;34928;37.302;-121.984;2023-04-25T00:32:14;100807.0;;;27.98;25.54
48644;BME280;34928;37.302;-121.984;2023-04-25T00:42:18;100809.0;;;27.61;25.41
48644;BME280;34928;37.302;-121.984;2023-04-25T00:52:23;100819.0;;;27.82;25.97
48644;BME280;34928;37.302;-121.984;2023-04-25T01:02:28;100812.0;;;28.13;25.37
48644;BME280;34928;37.302;-121.984;2023-04-25T01:12:34;100818.0;;;28.24;25.23
48644;BME280;34928;37.302;-121.984;2023-04-25T01:22:39;100816.0;;;28.30;25.58
48644;BME280;34928;37.302;-121.984;2023-04-25T01:32:44;100812.0;;;28.10;25.52
48644;BME280;34928;37.302;-121.984;2023-04-25T01:42:49;100809.0;;;27.55;25.57
48644;BME280;34928;37.302;-121.984;2023-04-25T01:52:54;100806.0;;;27.47;25.87
48644;BME280;34928;37.302;-121.984;2023-04-25T02:02:59;100803.0;;;27.13;25.80
48644;BME280;34928;37.302;-121.984;2023-04-25T02:13:04;100800.0;;;27.36;26.67
48644;BME280;34928;37.302;-121.984;2023-04-25T02:23:09;100811.0;;;28.29;26.20
48644;BME280;34928;37.302;-121.984;2023-04-25T02:33:13;100811.0;;;28.06;26.57
48644;BME280;34928;37.302;-121.984;2023-04-25T02:43:19;100824.0;;;27.99;26.45
48644;BME280;34928;37.302;-121.984;2023-04-25T02:53:23;100829.0;;;27.61;26.49
48644;BME280;34928;37.302;-121.984;2023-04-25T03:03:28;100834.0;;;27.37;26.40
48644;BME280;34928;37.302;-121.984;2023-04-25T03:13:33;100841.0;;;27.19;26.35
48644;BME280;34928;37.302;-121.984;2023-04-25T03:23:43;100854.0;;;27.22;26.22
48644;BME280;34928;37.302;-121.984;2023-04-25T03:33:49;100873.0;;;27.48;25.79
48644;BME280;34928;37.302;-121.984;2023-04-25T03:43:53;100881.0;;;27.88;25.52
48644;BME280;34928;37.302;-121.984;2023-04-25T03:53:58;100891.0;;;27.82;25.01
48644;BME280;34928;37.302;-121.984;2023-04-25T04:14:23;100912.0;;;27.07;26.95
48644;BME280;34928;37.302;-121.984;2023-04-25T04:24:28;100923.0;;;26.92;27.14
48644;BME280;34928;37.302;-121.984;2023-04-25T04:34:34;100926.0;;;26.37;27.24
48644;BME280;34928;37.302;-121.984;2023-04-25T04:44:39;100922.0;;;26.49;27.37
48644;BME280;34928;37.302;-121.984;2023-04-25T04:54:43;100920.0;;;27.04;26.61
48644;BME280;34928;37.302;-121.984;2023-04-25T05:04:48;100917.0;;;27.28;26.14
48644;BME280;34928;37.302;-121.984;2023-04-25T05:14:53;100911.0;;;26.86;26.14
48644;BME280;34928;37.302;-121.984;2023-04-25T05:24:58;100912.0;;;26.20;26.93
48644;BME280;34928;37.302;-121.984;2023-04-25T05:35:03;100908.0;;;26.16;26.88
48644;BME280;34928;37.302;-121.984;2023-04-25T05:45:10;100901.0;;;25.62;26.99
48644;BME280;34928;37.302;-121.984;2023-04-25T05:55:18;100887.0;;;26.48;26.74
48644;BME280;34928;37.302;-121.984;2023-04-25T06:05:24;100884.0;;;25.98;26.91
48644;BME280;34928;37.302;-121.984;2023-04-25T06:15:29;100886.0;;;26.03;26.95
48644;BME280;34928;37.302;-121.984;2023-04-25T06:25:33;100887.0;;;26.46;26.41
48644;BME280;34928;37.302;-121.984;2023-04-25T06:35:38;100885.0;;;25.50;27.20
48644;BME280;34928;37.302;-121.984;2023-04-25T06:45:44;100885.0;;;25.99;27.20
48644;BME280;34928;37.302;-121.984;2023-04-25T06:55:48;100891.0;;;25.55;27.09
48644;BME280;34928;37.302;-121.984;2023-04-25T07:05:54;100893.0;;;25.80;26.99
48644;BME280;34928;37.302;-121.984;2023-04-25T07:15:59;100911.0;;;26.22;26.47
48644;BME280;34928;37.302;-121.984;2023-04-25T07:26:03;100914.0;;;26.76;25.61
48644;BME280;34928;37.302;-121.984;2023-04-25T07:36:09;100919.0;;;27.31;24.45
48644;BME280;34928;37.302;-121.984;2023-04-25T07:46:14;100920.0;;;27.15;24.50
48644;BME280;34928;37.302;-121.984;2023-04-25T07:56:18;100914.0;;;27.16;24.48
48644;BME280;34928;37.302;-121.984;2023-04-25T08:06:24;100913.0;;;27.40;24.35
48644;BME280;34928;37.302;-121.984;2023-04-25T08:16:28;100908.0;;;27.09;24.36
48644;BME280;34928;37.302;-121.984;2023-04-25T08:26:33;100910.0;;;27.27;24.32
48644;BME280;34928;37.302;-121.984;2023-04-25T08:36:38;100898.0;;;26.86;24.46
48644;BME280;34928;37.302;-121.984;2023-04-25T08:46:43;100896.0;;;27.27;24.45
48644;BME280;34928;37.302;-121.984;2023-04-25T08:56:54;100888.0;;;27.13;24.52
48644;BME280;34928;37.302;-121.984;2023-04-25T09:07:00;100878.0;;;26.87;24.45
48644;BME280;34928;37.302;-121.984;2023-04-25T09:17:08;100852.0;;;27.01;24.44
48644;BME280;34928;37.302;-121.984;2023-04-25T09:27:19;100829.0;;;27.10;24.53
48644;BME280;34928;37.302;-121.984;2023-04-25T09:37:26;100813.0;;;27.01;24.53
48644;BME280;34928;37.302;-121.984;2023-04-25T09:47:38;100806.0;;;26.66;24.54
48644;BME280;34928;37.302;-121.984;2023-04-25T09:57:45;100810.0;;;26.63;24.49
48644;BME280;34928;37.302;-121.984;2023-04-25T10:07:54;100806.0;;;26.48;24.56
48644;BME280;34928;37.302;-121.984;2023-04-25T10:17:58;100796.0;;;26.39;24.60
48644;BME280;34928;37.302;-121.984;2023-04-25T10:28:07;100804.0;;;26.19;24.71
48644;BME280;34928;37.302;-121.984;2023-04-25T10:38:15;100804.0;;;26.44;24.63
48644;BME280;34928;37.302;-121.984;2023-04-25T10:48:26;100799.0;;;26.37;24.59
48644;BME280;34928;37.302;-121.984;2023-04-25T10:58:34;100806.0;;;26.32;24.46
48644;BME280;34928;37.302;-121.984;2023-04-25T11:08:47;100806.0;;;26.14;24.55
48644;BME280;34928;37.302;-121.984;2023-04-25T11:18:53;100807.0;;;26.02;24.51
48644;BME280;34928;37.302;-121.984;2023-04-25T11:29:03;100806.0;;;26.07;24.51
48644;BME280;34928;37.302;-121.984;2023-04-25T11:39:09;100813.0;;;26.02;24.54
48644;BME280;34928;37.302;-121.984;2023-04-25T11:49:13;100798.0;;;25.88;24.63
48644;BME280;34928;37.302;-121.984;2023-04-25T11:59:18;100795.0;;;25.81;24.57
48644;BME280;34928;37.302;-121.984;2023-04-25T12:09:30;100791.0;;;25.45;24.69
48644;BME280;34928;37.302;-121.984;2023-04-25T12:19:39;100791.0;;;25.60;24.54
48644;BME280;34928;37.302;-121.984;2023-04-25T12:29:51;100794.0;;;25.38;24.54
48644;BME280;34928;37.302;-121.984;2023-04-25T12:39:58;100794.0;;;25.33;24.43
48644;BME280;34928;37.302;-121.984;2023-04-25T12:50:04;100792.0;;;25.20;24.38
48644;BME280;34928;37.302;-121.984;2023-04-25T13:00:09;100788.0;;;25.12;24.68
48644;BME280;34928;37.302;-121.984;2023-04-25T13:10:13;100790.0;;;25.14;24.38
48644;BME280;34928;37.302;-121.984;2023-04-25T13:20:19;100790.0;;;25.02;24.26
48644;BME280;34928;37.302;-121.984;2023-04-25T13:30:23;100797.0;;;24.95;24.65
48644;BME280;34928;37.302;-121.984;2023-04-25T13:40:28;100797.0;;;24.83;24.34
48644;BME280;34928;37.302;-121.984;2023-04-25T13:50:37;100797.0;;;24.79;24.17
48644;BME280;34928;37.302;-121.984;2023-04-25T14:00:43;100784.0;;;24.68;24.74
48644;BME280;34928;37.302;-121.984;2023-04-25T14:10:48;100786.0;;;24.91;24.97
48644;BME280;34928;37.302;-121.984;2023-04-25T14:20:53;100778.0;;;25.08;25.11
48644;BME280;34928;37.302;-121.984;2023-04-25T14:30:58;100769.0;;;24.90;25.46
48644;BME280;34928;37.302;-121.984;2023-04-25T14:41:03;100774.0;;;25.20;25.75
48644;BME280;34928;37.302;-121.984;2023-04-25T14:51:08;100787.0;;;24.83;26.04
48644;BME280;34928;37.302;-121.984;2023-04-25T15:01:19;100782.0;;;24.67;25.65
48644;BME280;34928;37.302;-121.984;2023-04-25T15:11:23;100780.0;;;24.65;25.44
48644;BME280;34928;37.302;-121.984;2023-04-25T15:21:28;100787.0;;;24.78;25.12
48644;BME280;34928;37.302;-121.984;2023-04-25T15:31:33;100791.0;;;24.63;25.00
48644;BME280;34928;37.302;-121.984;2023-04-25T15:41:38;100786.0;;;24.85;25.09
48644;BME280;34928;37.302;-121.984;2023-04-25T15:51:44;100788.0;;;24.59;24.30
48644;BME280;34928;37.302;-121.984;2023-04-25T16:01:48;100793.0;;;25.05;24.16
48644;BME280;34928;37.302;-121.984;2023-04-25T16:11:54;100793.0;;;25.09;24.22
48644;BME280;34928;37.302;-121.984;2023-04-25T16:21:58;100791.0;;;24.95;24.08
48644;BME280;34928;37.302;-121.984;2023-04-25T16:32:08;100790.0;;;24.98;24.10
48644;BME280;34928;37.302;-121.984;2023-04-25T16:42:13;100785.0;;;24.69;24.69
48644;BME280;34928;37.302;-121.984;2023-04-25T16:52:17;100783.0;;;25.02;24.72
48644;BME280;34928;37.302;-121.984;2023-04-25T17:02:23;100776.0;;;25.18;24.78
48644;BME280;34928;37.302;-121.984;2023-04-25T17:12:33;100780.0;;;25.03;24.18
48644;BME280;34928;37.302;-121.984;2023-04-25T17:22:38;100782.0;;;25.30;24.27
48644;BME280;34928;37.302;-121.984;2023-04-25T17:32:44;100778.0;;;24.82;24.54
48644;BME280;34928;37.302;-121.984;2023-04-25T17:42:49;100774.0;;;25.19;24.23
48644;BME280;34928;37.302;-121.984;2023-04-25T17:52:53;100772.0;;;25.03;25.02
48644;BME280;34928;37.302;-121.984;2023-04-25T18:02:58;100768.0;;;25.25;24.98
48644;BME280;34928;37.302;-121.984;2023-04-25T18:13:03;100769.0;;;25.80;24.96
48644;BME280;34928;37.302;-121.984;2023-04-25T18:23:08;100762.0;;;25.34;25.20
48644;BME280;34928;37.302;-121.984;2023-04-25T18:33:14;100763.0;;;25.44;24.90
48644;BME280;34928;37.302;-121.984;2023-04-25T18:43:19;100756.0;;;25.46;25.19
48644;BME280;34928;37.302;-121.984;2023-04-25T18:53:23;100745.0;;;25.63;25.00
48644;BME280;34928;37.302;-121.984;2023-04-25T19:03:28;100739.0;;;25.77;24.97
48644;BME280;34928;37.302;-121.984;2023-04-25T19:13:32;100731.0;;;25.65;24.89
48644;BME280;34928;37.302;-121.984;2023-04-25T19:23:38;100724.0;;;25.94;25.00
48644;BME280;34928;37.302;-121.984;2023-04-25T19:33:43;100712.0;;;26.04;24.59
48644;BME280;34928;37.302;-121.984;2023-04-25T19:43:48;100703.0;;;25.75;24.54
48644;BME280;34928;37.302;-121.984;2023-04-25T19:53:54;100694.0;;;26.31;24.46
48644;BME280;34928;37.302;-121.984;2023-04-25T20:03:57;100675.0;;;26.20;24.47
48644;BME280;34928;37.302;-121.984;2023-04-25T20:14:03;100665.0;;;26.42;24.37
48644;BME280;34928;37.302;-121.984;2023-04-25T20:24:08;100653.0;;;26.79;24.23
48644;BME280;34928;37.302;-121.984;2023-04-25T20:34:13;100644.0;;;26.76;23.83
48644;BME280;34928;37.302;-121.984;2023-04-25T20:44:18;100642.0;;;26.85;23.71
48644;BME280;34928;37.302;-121.984;2023-04-25T20:54:23;100636.0;;;26.84;23.63
48644;BME280;34928;37.302;-121.984;2023-04-25T21:04:29;100624.0;;;26.99;23.48
48644;BME280;34928;37.302;-121.984;2023-04-25T21:14:33;100626.0;;;27.39;23.21
48644;BME280;34928;37.302;-121.984;2023-04-25T21:24:39;100621.0;;;27.51;23.03
48644;BME280;34928;37.302;-121.984;2023-04-25T21:34:43;100617.0;;;27.46;22.87
48644;BME280;34928;37.302;-121.984;2023-04-25T21:44:48;100619.0;;;27.61;22.70
48644;BME280;34928;37.302;-121.984;2023-04-25T21:54:54;100622.0;;;27.82;22.56
48644;BME280;34928;37.302;-121.984;2023-04-25T22:04:58;100612.0;;;27.75;22.40
48644;BME280;34928;37.302;-121.984;2023-04-25T22:15:03;100606.0;;;27.91;22.37
48644;BME280;34928;37.302;-121.984;2023-04-25T22:25:09;100601.0;;;28.18;22.85
48644;BME280;34928;37.302;-121.984;2023-04-25T22:35:13;100589.0;;;28.19;22.58
48644;BME280;34928;37.302;-121.984;2023-04-25T22:45:18;100579.0;;;28.29;22.40
48644;BME280;34928;37.302;-121.984;2023-04-25T22:55:23;100574.0;;;28.52;22.49
48644;BME280;34928;37.302;-121.984;2023-04-25T23:05:29;100558.0;;;28.65;21.99
48644;BME280;34928;37.302;-121.984;2023-04-25T23:15:33;100559.0;;;28.34;21.37
48644;BME280;34928;37.302;-121.984;2023-04-25T23:25:38;100554.0;;;28.64;20.98
48644;BME280;34928;37.302;-121.984;2023-04-25T23:35:42;100553.0;;;28.47;21.26
48644;BME280;34928;37.302;-121.984;2023-04-25T23:45:48;100552.0;;;28.88;20.81
48644;BME280;34928;37.302;-121.984;2023-04-25T23:55:53;100558.0;;;29.06;21.06
